createdAt,value
2024-03-16T00:00:08.786Z,99715.17
2024-03-16T00:02:37.049Z,99714.77
2024-03-16T00:05:04.618Z,99715.10
2024-03-16T00:07:31.835Z,99716.98
2024-03-16T00:09:59.160Z,99711.96
2024-03-16T00:12:26.432Z,99708.52
2024-03-16T00:14:54.555Z,99707.46
2024-03-16T00:17:21.882Z,99708.85
2024-03-16T00:19:49.531Z,99702.64
2024-03-16T00:22:16.765Z,99700.22
2024-03-16T00:24:44.002Z,99698.14
2024-03-16T00:27:11.237Z,99698.32
2024-03-16T00:29:38.462Z,99695.90
2024-03-16T00:32:05.988Z,99690.89
2024-03-16T00:34:33.823Z,99692.45
2024-03-16T00:37:05.406Z,99687.91
2024-03-16T00:39:32.974Z,99686.21
2024-03-16T00:42:00.236Z,99683.64
2024-03-16T00:44:28.347Z,99681.73
2024-03-16T00:46:55.522Z,99679.66
2024-03-16T00:49:22.749Z,99680.17
2024-03-16T00:51:51.124Z,99676.38
2024-03-16T00:54:19.091Z,99674.31
2024-03-16T00:56:47.375Z,99671.73
2024-03-16T00:59:15.453Z,99676.90
2024-03-16T01:01:42.618Z,99673.96
2024-03-16T01:04:10.293Z,99669.30
2024-03-16T01:06:38.057Z,99668.63
2024-03-16T01:09:05.412Z,99664.17
2024-03-16T01:11:33.221Z,99660.50
2024-03-16T01:14:00.589Z,99658.08
2024-03-16T01:16:27.857Z,99654.27
2024-03-16T01:18:55.095Z,99654.42
2024-03-16T01:21:22.925Z,99652.68
2024-03-16T01:23:50.133Z,99648.04
2024-03-16T01:26:17.323Z,99645.09
2024-03-16T01:28:44.558Z,99645.92
2024-03-16T01:31:14.439Z,99647.46
2024-03-16T01:33:42.237Z,99648.11
2024-03-16T01:36:09.390Z,99655.88
2024-03-16T01:38:37.416Z,99649.48
2024-03-16T01:41:04.655Z,99645.84
2024-03-16T01:43:32.101Z,99645.48
2024-03-16T01:45:59.415Z,99644.58
2024-03-16T01:48:26.780Z,99638.86
2024-03-16T01:50:55.300Z,99640.36
2024-03-16T01:53:22.584Z,99642.90
2024-03-16T01:55:49.956Z,99644.28
2024-03-16T01:58:17.126Z,99644.44
2024-03-16T02:00:48.019Z,99644.73
2024-03-16T02:03:15.270Z,99642.13
2024-03-16T02:05:42.723Z,99646.23
2024-03-16T02:08:10.253Z,99646.39
2024-03-16T02:10:37.436Z,99643.94
2024-03-16T02:13:04.669Z,99640.80
2024-03-16T02:15:33.172Z,99642.34
2024-03-16T02:18:00.422Z,99639.74
2024-03-16T02:20:27.890Z,99638.51
2024-03-16T02:22:55.480Z,99633.46
2024-03-16T02:25:23.465Z,99629.48
2024-03-16T02:27:51.338Z,99630.13
2024-03-16T02:30:18.591Z,99637.92
2024-03-16T02:32:45.837Z,99642.95
2024-03-16T02:35:13.701Z,99640.54
2024-03-16T02:37:41.466Z,99637.39
2024-03-16T02:40:12.771Z,99641.48
2024-03-16T02:42:43.017Z,99640.76
2024-03-16T02:45:11.722Z,99641.93
2024-03-16T02:47:39.505Z,99638.09
2024-03-16T02:50:07.874Z,99640.98
2024-03-16T02:52:35.058Z,99643.02
2024-03-16T02:55:02.460Z,99643.02
2024-03-16T02:57:29.751Z,99638.98
2024-03-16T02:59:56.996Z,99636.18
2024-03-16T03:02:24.701Z,99638.05
2024-03-16T03:04:51.931Z,99630.71
2024-03-16T03:07:19.370Z,99627.91
2024-03-16T03:09:48.036Z,99625.11
2024-03-16T03:12:15.360Z,99623.70
2024-03-16T03:14:42.553Z,99620.08
2024-03-16T03:17:09.785Z,99617.08
2024-03-16T03:19:37.136Z,99617.09
2024-03-16T03:22:04.487Z,99623.33
2024-03-16T03:24:32.259Z,99624.04
2024-03-16T03:26:59.864Z,99628.54
2024-03-16T03:29:27.142Z,99631.30
2024-03-16T03:31:57.367Z,99635.09
2024-03-16T03:34:25.027Z,99628.03
2024-03-16T03:36:52.254Z,99626.29
2024-03-16T03:39:19.585Z,99620.70
2024-03-16T03:41:47.186Z,99619.45
2024-03-16T03:44:21.863Z,99618.39
2024-03-16T03:46:52.431Z,99614.75
2024-03-16T03:49:36.203Z,99620.63
2024-03-16T03:52:05.718Z,99622.33
2024-03-16T03:54:35.196Z,99620.23
2024-03-16T03:57:02.625Z,99625.23
2024-03-16T03:59:30.448Z,99628.34
2024-03-16T04:01:57.740Z,99628.91
2024-03-16T04:04:25.005Z,99624.79
2024-03-16T04:06:52.224Z,99626.76
2024-03-16T04:09:20.084Z,99629.08
2024-03-16T04:11:47.227Z,99625.34
2024-03-16T04:14:14.389Z,99630.77
2024-03-16T04:16:41.615Z,99631.23
2024-03-16T04:19:08.931Z,99633.55
2024-03-16T04:21:36.383Z,99625.00
2024-03-16T04:24:03.751Z,99629.73
2024-03-16T04:26:30.974Z,99634.48
2024-03-16T04:28:58.161Z,99638.52
2024-03-16T04:31:25.505Z,99640.16
2024-03-16T04:33:53.050Z,99641.42
2024-03-16T04:36:20.237Z,99641.84
2024-03-16T04:38:47.404Z,99647.94
2024-03-16T04:41:14.564Z,99645.57
2024-03-16T04:43:42.286Z,99644.93
2024-03-16T04:46:09.573Z,99641.69
2024-03-16T04:48:36.950Z,99641.02
2024-03-16T04:51:04.420Z,99643.27
2024-03-16T04:53:31.764Z,99645.86
2024-03-16T04:55:59.737Z,99645.20
2024-03-16T04:58:27.028Z,99645.38
2024-03-16T05:00:54.460Z,99643.63
2024-03-16T05:03:21.757Z,99641.02
2024-03-16T05:05:51.494Z,99646.20
2024-03-16T05:08:18.658Z,99652.88
2024-03-16T05:10:53.145Z,99647.84
2024-03-16T05:13:20.516Z,99645.36
2024-03-16T05:15:47.814Z,99643.57
2024-03-16T05:18:15.040Z,99650.95
2024-03-16T05:20:42.357Z,99650.85
2024-03-16T05:23:09.603Z,99650.94
2024-03-16T05:25:38.099Z,99653.98
2024-03-16T05:28:05.488Z,99653.57
2024-03-16T05:30:32.841Z,99656.10
2024-03-16T05:33:00.244Z,99656.20
2024-03-16T05:35:29.638Z,99655.45
2024-03-16T05:37:57.248Z,99656.55
2024-03-16T05:40:25.533Z,99653.54
2024-03-16T05:42:52.872Z,99654.99
2024-03-16T05:45:20.078Z,99657.48
2024-03-16T05:47:47.321Z,99653.06
2024-03-16T05:50:15.043Z,99650.18
2024-03-16T05:52:42.246Z,99647.79
2024-03-16T05:55:09.699Z,99647.30
2024-03-16T05:57:37.269Z,99644.91
2024-03-16T06:00:14.384Z,99641.52
2024-03-16T06:02:41.693Z,99647.64
2024-03-16T06:05:10.316Z,99651.17
2024-03-16T06:07:37.600Z,99653.15
2024-03-16T06:10:05.115Z,99653.74
2024-03-16T06:12:32.532Z,99653.48
2024-03-16T06:14:59.849Z,99655.29
2024-03-16T06:17:27.159Z,99656.24
2024-03-16T06:19:55.256Z,99652.66
2024-03-16T06:22:22.903Z,99655.47
2024-03-16T06:24:50.733Z,99654.15
2024-03-16T06:27:22.259Z,99650.77
2024-03-16T06:29:53.309Z,99648.39
2024-03-16T06:32:21.564Z,99654.54
2024-03-16T06:34:51.413Z,99661.19
2024-03-16T06:37:21.069Z,99661.26
2024-03-16T06:39:48.355Z,99654.23
2024-03-16T06:42:15.708Z,99659.00
2024-03-16T06:44:42.885Z,99654.59
2024-03-16T06:47:10.069Z,99655.81
2024-03-16T06:49:37.283Z,99660.69
2024-03-16T06:52:04.955Z,99664.02
2024-03-16T06:54:32.346Z,99666.08
2024-03-16T06:56:59.640Z,99657.58
2024-03-16T06:59:27.745Z,99658.29
2024-03-16T07:01:55.569Z,99661.59
2024-03-16T07:04:23.035Z,99668.48
2024-03-16T07:06:50.274Z,99669.95
2024-03-16T07:09:19.319Z,99666.14
2024-03-16T07:11:48.411Z,99665.91
2024-03-16T07:14:16.233Z,99660.92
2024-03-16T07:16:43.595Z,99663.26
2024-03-16T07:19:11.094Z,99663.23
2024-03-16T07:21:38.763Z,99664.68
2024-03-16T07:24:08.057Z,99663.58
2024-03-16T07:26:35.212Z,99659.66
2024-03-16T07:29:02.375Z,99660.02
2024-03-16T07:31:29.595Z,99666.14
2024-03-16T07:33:59.291Z,99664.27
2024-03-16T07:36:28.082Z,99665.22
2024-03-16T07:38:55.612Z,99663.97
2024-03-16T07:41:22.790Z,99667.48
2024-03-16T07:43:50.759Z,99668.91
2024-03-16T07:46:20.585Z,99667.77
2024-03-16T07:48:47.983Z,99668.45
2024-03-16T07:51:17.851Z,99667.09
2024-03-16T07:53:45.099Z,99670.95
2024-03-16T07:56:12.320Z,99673.33
2024-03-16T07:58:39.453Z,99681.75
2024-03-16T08:01:07.029Z,99674.80
2024-03-16T08:03:34.334Z,99667.08
2024-03-16T08:06:06.040Z,99668.19
2024-03-16T08:08:34.157Z,99668.09
2024-03-16T08:11:01.501Z,99672.48
2024-03-16T08:13:28.846Z,99673.24
2024-03-16T08:15:56.173Z,99671.66
2024-03-16T08:18:23.456Z,99671.27
2024-03-16T08:20:50.672Z,99668.88
2024-03-16T08:23:19.921Z,99674.77
2024-03-16T08:25:48.068Z,99673.06
2024-03-16T08:28:15.997Z,99677.46
2024-03-16T08:30:43.834Z,99673.17
2024-03-16T08:33:11.591Z,99673.02
2024-03-16T08:35:38.866Z,99668.66
2024-03-16T08:38:06.123Z,99671.27
2024-03-16T08:40:34.052Z,99676.61
2024-03-16T08:43:01.510Z,99672.19
2024-03-16T08:45:28.785Z,99665.98
2024-03-16T08:47:56.074Z,99664.58
2024-03-16T08:50:23.397Z,99666.05
2024-03-16T08:52:50.854Z,99665.77
2024-03-16T08:55:19.044Z,99665.46
2024-03-16T08:57:46.418Z,99666.27
2024-03-16T09:00:16.720Z,99659.67
2024-03-16T09:02:44.338Z,99660.55
2024-03-16T09:05:11.805Z,99662.17
2024-03-16T09:07:40.143Z,99658.28
2024-03-16T09:10:08.718Z,99658.85
2024-03-16T09:12:36.182Z,99656.67
2024-03-16T09:15:07.253Z,99650.10
2024-03-16T09:17:35.153Z,99647.72
2024-03-16T09:20:09.189Z,99644.18
2024-03-16T09:22:38.166Z,99647.56
2024-03-16T09:25:06.471Z,99644.06
2024-03-16T09:27:34.642Z,99639.11
2024-03-16T09:30:02.583Z,99639.61
2024-03-16T09:32:30.010Z,99640.63
2024-03-16T09:34:57.172Z,99639.95
2024-03-16T09:37:24.409Z,99640.16
2024-03-16T09:39:52.856Z,99640.61
2024-03-16T09:42:22.840Z,99633.34
2024-03-16T09:44:50.156Z,99638.34
2024-03-16T09:47:17.268Z,99641.42
2024-03-16T09:49:44.476Z,99644.29
2024-03-16T09:52:17.187Z,99644.00
2024-03-16T09:54:44.654Z,99643.71
2024-03-16T09:57:15.854Z,99645.48
2024-03-16T09:59:49.866Z,99645.02
2024-03-16T10:02:20.798Z,99643.05
2024-03-16T10:04:49.187Z,99644.95
2024-03-16T10:07:17.003Z,99647.55
2024-03-16T10:10:00.309Z,99651.09
2024-03-16T10:12:28.665Z,99655.14
2024-03-16T10:15:18.030Z,99663.15
2024-03-16T10:17:45.193Z,99662.41
2024-03-16T10:20:17.112Z,99665.70
2024-03-16T10:22:48.116Z,99671.86
2024-03-16T10:25:16.827Z,99668.10
2024-03-16T10:27:45.430Z,99668.73
2024-03-16T10:30:16.187Z,99669.91
2024-03-16T10:32:49.876Z,99667.68
2024-03-16T10:35:26.280Z,99667.10
2024-03-16T10:37:53.981Z,99661.40
2024-03-16T10:40:25.457Z,99666.89
2024-03-16T10:42:52.635Z,99662.99
2024-03-16T10:45:24.730Z,99657.88
2024-03-16T10:47:53.640Z,99656.60
2024-03-16T10:50:25.420Z,99663.21
2024-03-16T10:52:54.106Z,99654.27
2024-03-16T10:55:24.076Z,99649.76
2024-03-16T10:57:53.934Z,99654.05
2024-03-16T11:00:27.159Z,99653.48
2024-03-16T11:03:17.957Z,99651.70
2024-03-16T11:05:49.033Z,99650.10
2024-03-16T11:08:16.154Z,99642.64
2024-03-16T11:10:44.779Z,99641.75
2024-03-16T11:13:16.250Z,99645.08
2024-03-16T11:15:47.095Z,99641.75
2024-03-16T11:18:17.405Z,99640.19
2024-03-16T11:20:45.035Z,99643.27
2024-03-16T11:23:29.465Z,99647.83
2024-03-16T11:26:02.036Z,99647.17
2024-03-16T11:28:45.518Z,99645.84
2024-03-16T11:31:41.774Z,99642.19
2024-03-16T11:34:15.073Z,99645.25
2024-03-16T11:36:43.297Z,99658.57
2024-03-16T11:39:13.659Z,99645.92
2024-03-16T11:41:45.160Z,99642.89
2024-03-16T11:44:16.896Z,99645.52
2024-03-16T11:46:45.711Z,99639.86
2024-03-16T11:49:15.851Z,99642.36
2024-03-16T11:51:44.150Z,99646.58
2024-03-16T11:54:15.052Z,99650.77
2024-03-16T11:56:43.878Z,99644.96
2024-03-16T11:59:17.242Z,99641.20
2024-03-16T12:01:47.997Z,99642.50
2024-03-16T12:04:18.956Z,99636.69
2024-03-16T12:06:49.576Z,99636.45
2024-03-16T12:09:18.447Z,99642.63
2024-03-16T12:11:47.394Z,99637.61
2024-03-16T12:14:22.878Z,99632.05
2024-03-16T12:16:54.651Z,99628.73
2024-03-16T12:19:21.925Z,99633.03
2024-03-16T12:21:50.205Z,99633.89
2024-03-16T12:24:19.035Z,99629.38
2024-03-16T12:26:48.565Z,99626.82
2024-03-16T12:29:18.263Z,99629.84
2024-03-16T12:31:46.641Z,99633.45
2024-03-16T12:34:14.968Z,99632.79
2024-03-16T12:36:42.914Z,99627.77
2024-03-16T12:39:11.965Z,99630.55
2024-03-16T12:41:42.140Z,99631.98
2024-03-16T12:44:10.480Z,99624.89
2024-03-16T12:46:37.660Z,99625.16
2024-03-16T12:49:05.108Z,99622.77
2024-03-16T12:51:35.687Z,99628.86
2024-03-16T12:54:03.382Z,99634.81
2024-03-16T12:56:33.270Z,99630.09
2024-03-16T12:59:00.438Z,99634.36
2024-03-16T13:01:32.009Z,99638.09
2024-03-16T13:04:00.761Z,99629.22
2024-03-16T13:06:28.009Z,99630.46
2024-03-16T13:08:55.368Z,99639.36
2024-03-16T13:11:26.101Z,99641.19
2024-03-16T13:13:53.320Z,99638.70
2024-03-16T13:16:20.566Z,99638.25
2024-03-16T13:18:47.792Z,99629.37
2024-03-16T13:21:15.156Z,99630.38
2024-03-16T13:23:42.410Z,99620.66
2024-03-16T13:26:13.462Z,99611.01
2024-03-16T13:28:40.693Z,99608.92
2024-03-16T13:31:10.335Z,99606.39
2024-03-16T13:33:37.478Z,99598.59
2024-03-16T13:36:05.894Z,99594.52
2024-03-16T13:38:33.462Z,99594.27
2024-03-16T13:41:00.738Z,99592.66
2024-03-16T13:43:29.091Z,99592.02
2024-03-16T13:45:56.381Z,99600.25
2024-03-16T13:48:25.973Z,99595.52
2024-03-16T13:50:53.228Z,99598.61
2024-03-16T13:53:21.840Z,99590.06
2024-03-16T13:55:50.129Z,99589.36
2024-03-16T13:58:17.317Z,99596.77
2024-03-16T14:00:44.688Z,99601.23
2024-03-16T14:03:13.396Z,99596.80
2024-03-16T14:05:40.672Z,99595.89
2024-03-16T14:08:07.873Z,99589.06
2024-03-16T14:10:35.081Z,99584.30
2024-03-16T14:13:02.481Z,99584.67
2024-03-16T14:15:30.574Z,99588.52
2024-03-16T14:17:58.259Z,99587.60
2024-03-16T14:20:31.772Z,99586.70
2024-03-16T14:22:58.936Z,99591.10
2024-03-16T14:25:29.122Z,99590.58
2024-03-16T14:27:58.231Z,99589.14
2024-03-16T14:30:25.408Z,99584.30
2024-03-16T14:32:52.701Z,99586.61
2024-03-16T14:35:20.495Z,99587.73
2024-03-16T14:37:47.753Z,99589.11
2024-03-16T14:40:22.695Z,99594.94
2024-03-16T14:42:50.210Z,99595.45
2024-03-16T14:45:17.383Z,99593.36
2024-03-16T14:47:44.580Z,99592.89
2024-03-16T14:50:14.105Z,99586.29
2024-03-16T14:52:44.266Z,99587.19
2024-03-16T14:55:11.500Z,99588.42
2024-03-16T14:57:39.470Z,99587.61
2024-03-16T15:00:07.745Z,99586.45
2024-03-16T15:02:35.687Z,99593.08
2024-03-16T15:05:09.577Z,99589.83
2024-03-16T15:07:39.423Z,99591.47
2024-03-16T15:10:07.466Z,99593.06
2024-03-16T15:12:34.716Z,99599.41
2024-03-16T15:15:01.889Z,99599.19
2024-03-16T15:17:29.032Z,99601.21
2024-03-16T15:19:56.279Z,99605.17
2024-03-16T15:22:23.490Z,99606.95
2024-03-16T15:24:50.892Z,99607.14
2024-03-16T15:27:23.736Z,99614.10
2024-03-16T15:29:50.947Z,99621.20
2024-03-16T15:32:18.218Z,99621.54
2024-03-16T15:34:45.498Z,99628.29
2024-03-16T15:37:12.925Z,99629.50
2024-03-16T15:39:40.206Z,99638.11
2024-03-16T15:42:07.996Z,99648.09
2024-03-16T15:44:35.307Z,99655.72
2024-03-16T15:47:02.578Z,99660.00
2024-03-16T15:49:30.188Z,99661.25
2024-03-16T15:52:06.848Z,99658.33
2024-03-16T15:54:39.540Z,99660.15
2024-03-16T15:57:07.254Z,99659.89
2024-03-16T15:59:35.053Z,99661.49
2024-03-16T16:02:02.234Z,99649.77
2024-03-16T16:04:29.496Z,99658.06
2024-03-16T16:06:57.398Z,99656.90
2024-03-16T16:09:24.579Z,99655.31
2024-03-16T16:11:51.879Z,99655.45
2024-03-16T16:14:19.625Z,99655.80
2024-03-16T16:16:46.871Z,99659.07
2024-03-16T16:19:14.038Z,99665.14
2024-03-16T16:21:41.219Z,99667.87
2024-03-16T16:24:09.052Z,99668.09
2024-03-16T16:26:36.701Z,99672.33
2024-03-16T16:29:04.155Z,99667.36
2024-03-16T16:31:32.417Z,99670.20
2024-03-16T16:34:00.140Z,99667.76
2024-03-16T16:36:27.289Z,99670.88
2024-03-16T16:38:54.539Z,99677.48
2024-03-16T16:41:21.728Z,99680.44
2024-03-16T16:43:48.939Z,99684.52
2024-03-16T16:46:16.129Z,99691.36
2024-03-16T16:48:43.392Z,99697.34
2024-03-16T16:51:11.212Z,99701.88
2024-03-16T16:53:38.427Z,99703.09
2024-03-16T16:56:06.509Z,99708.30
2024-03-16T16:58:34.686Z,99711.91
2024-03-16T17:01:04.590Z,99721.23
2024-03-16T17:03:32.452Z,99729.70
2024-03-16T17:06:01.406Z,99729.16
2024-03-16T17:08:29.107Z,99730.08
2024-03-16T17:10:56.368Z,99731.83
2024-03-16T17:13:23.573Z,99725.00
2024-03-16T17:15:51.176Z,99726.55
2024-03-16T17:18:18.747Z,99726.27
2024-03-16T17:20:47.748Z,99726.26
2024-03-16T17:23:14.967Z,99727.69
2024-03-16T17:25:42.217Z,99727.70
2024-03-16T17:28:09.465Z,99729.56
2024-03-16T17:30:40.622Z,99723.73
2024-03-16T17:33:08.255Z,99722.92
2024-03-16T17:35:37.393Z,99724.20
2024-03-16T17:38:11.121Z,99728.55
2024-03-16T17:40:38.402Z,99729.31
2024-03-16T17:43:08.616Z,99728.02
2024-03-16T17:45:36.565Z,99730.39
2024-03-16T17:48:03.969Z,99730.29
2024-03-16T17:50:31.158Z,99729.64
2024-03-16T17:52:58.488Z,99729.05
2024-03-16T17:55:27.388Z,99734.15
2024-03-16T17:57:59.257Z,99740.48
2024-03-16T18:00:30.717Z,99755.89
2024-03-16T18:02:57.929Z,99765.05
2024-03-16T18:05:27.138Z,99771.10
2024-03-16T18:07:54.372Z,99778.52
2024-03-16T18:10:21.669Z,99787.30
2024-03-16T18:12:49.106Z,99787.55
2024-03-16T18:15:16.541Z,99785.28
2024-03-16T18:17:47.128Z,99786.62
2024-03-16T18:20:19.643Z,99782.61
2024-03-16T18:22:46.840Z,99787.63
2024-03-16T18:25:14.045Z,99788.29
2024-03-16T18:27:42.130Z,99789.45
2024-03-16T18:30:10.466Z,99790.77
2024-03-16T18:32:37.677Z,99786.70
2024-03-16T18:35:05.341Z,99783.67
2024-03-16T18:37:32.649Z,99792.08
2024-03-16T18:40:01.048Z,99812.66
2024-03-16T18:42:28.355Z,99824.92
2024-03-16T18:44:55.707Z,99829.34
2024-03-16T18:47:22.896Z,99836.03
2024-03-16T18:49:53.185Z,99841.53
2024-03-16T18:52:20.370Z,99844.30
2024-03-16T18:54:47.730Z,99853.08
2024-03-16T18:57:17.287Z,99859.05
2024-03-16T18:59:44.710Z,99857.38
2024-03-16T19:02:12.052Z,99857.08
2024-03-16T19:04:39.391Z,99861.77
2024-03-16T19:07:07.054Z,99864.59
2024-03-16T19:09:34.300Z,99873.33
2024-03-16T19:12:01.493Z,99876.84
2024-03-16T19:14:28.991Z,99881.75
2024-03-16T19:16:58.314Z,99886.13
2024-03-16T19:19:27.815Z,99891.75
2024-03-16T19:21:54.992Z,99896.86
2024-03-16T19:24:22.253Z,99900.91
2024-03-16T19:26:49.688Z,99911.59
2024-03-16T19:29:16.804Z,99918.25
2024-03-16T19:31:43.980Z,99935.20
2024-03-16T19:34:11.219Z,99942.77
2024-03-16T19:36:38.400Z,99950.16
2024-03-16T19:39:05.613Z,99967.95
2024-03-16T19:41:32.771Z,99974.69
2024-03-16T19:44:00.211Z,99980.09
2024-03-16T19:46:28.292Z,99992.31
2024-03-16T19:48:55.546Z,99997.43
2024-03-16T19:51:22.733Z,100006.27
2024-03-16T19:53:49.917Z,100007.81
2024-03-16T19:56:17.232Z,100011.04
2024-03-16T19:58:44.509Z,100018.09
2024-03-16T20:01:11.742Z,100023.55
2024-03-16T20:03:42.562Z,100035.60
2024-03-16T20:06:13.893Z,100038.32
2024-03-16T20:08:41.108Z,100043.95
2024-03-16T20:11:08.875Z,100051.11
2024-03-16T20:13:36.027Z,100057.71
2024-03-16T20:16:04.236Z,100065.55
2024-03-16T20:18:31.481Z,100075.98
2024-03-16T20:21:03.012Z,100077.91
2024-03-16T20:23:30.224Z,100078.65
2024-03-16T20:25:57.391Z,100077.63
2024-03-16T20:28:24.772Z,100081.64
2024-03-16T20:30:51.912Z,100080.09
2024-03-16T20:33:19.092Z,100079.08
2024-03-16T20:35:47.004Z,100083.06
2024-03-16T20:38:14.143Z,100082.40
2024-03-16T20:40:41.503Z,100080.34
2024-03-16T20:43:10.456Z,100077.74
2024-03-16T20:45:37.647Z,100076.19
2024-03-16T20:48:05.031Z,100081.36
2024-03-16T20:50:32.210Z,100079.30
2024-03-16T20:52:59.536Z,100083.63
2024-03-16T20:55:27.705Z,100082.27
2024-03-16T20:57:56.090Z,100085.23
2024-03-16T21:00:24.952Z,100087.52
2024-03-16T21:02:52.317Z,100090.13
2024-03-16T21:05:19.506Z,100088.24
2024-03-16T21:07:46.681Z,100089.31
2024-03-16T21:10:15.914Z,100089.48
2024-03-16T21:12:43.143Z,100089.88
2024-03-16T21:15:10.637Z,100093.02
2024-03-16T21:17:37.881Z,100097.91
2024-03-16T21:20:05.859Z,100100.59
2024-03-16T21:22:36.956Z,100102.38
2024-03-16T21:25:04.614Z,100103.65
2024-03-16T21:27:31.803Z,100108.01
2024-03-16T21:29:58.969Z,100107.72
2024-03-16T21:32:26.217Z,100114.35
2024-03-16T21:34:56.778Z,100114.07
2024-03-16T21:37:24.229Z,100119.83
2024-03-16T21:39:51.376Z,100114.36
2024-03-16T21:42:20.302Z,100114.05
2024-03-16T21:44:47.566Z,100117.90
2024-03-16T21:47:14.708Z,100118.80
2024-03-16T21:49:44.627Z,100123.64
2024-03-16T21:52:11.859Z,100132.29
2024-03-16T21:54:40.468Z,100131.10
2024-03-16T21:57:07.663Z,100134.05
2024-03-16T21:59:34.993Z,100134.42
2024-03-16T22:02:02.461Z,100134.79
2024-03-16T22:04:30.425Z,100133.25
2024-03-16T22:06:58.802Z,100141.73
2024-03-16T22:09:26.106Z,100145.02
2024-03-16T22:11:54.125Z,100151.58
2024-03-16T22:14:21.350Z,100155.22
2024-03-16T22:16:48.489Z,100157.65
2024-03-16T22:19:15.639Z,100160.76
2024-03-16T22:21:42.837Z,100162.85
2024-03-16T22:24:09.998Z,100162.69
2024-03-16T22:26:37.162Z,100169.08
2024-03-16T22:29:04.360Z,100172.88
2024-03-16T22:31:31.599Z,100168.74
2024-03-16T22:33:59.164Z,100170.46
2024-03-16T22:36:28.981Z,100166.68
2024-03-16T22:38:56.104Z,100173.91
2024-03-16T22:41:23.207Z,100177.54
2024-03-16T22:43:50.604Z,100183.75
2024-03-16T22:46:17.752Z,100186.49
2024-03-16T22:48:44.941Z,100185.63
2024-03-16T22:51:12.145Z,100188.40
2024-03-16T22:53:39.306Z,100192.87
2024-03-16T22:56:06.725Z,100197.34
2024-03-16T22:58:34.000Z,100193.02
2024-03-16T23:01:04.641Z,100195.96
2024-03-16T23:03:32.383Z,100199.05
2024-03-16T23:06:02.141Z,100196.63
2024-03-16T23:08:30.974Z,100199.21
2024-03-16T23:10:58.166Z,100198.87
2024-03-16T23:13:27.143Z,100197.65
2024-03-16T23:15:57.329Z,100200.92
2024-03-16T23:18:24.440Z,100201.95
2024-03-16T23:20:54.871Z,100205.56
2024-03-16T23:23:22.001Z,100202.96
2024-03-16T23:25:49.554Z,100202.96
2024-03-16T23:28:17.117Z,100204.67
2024-03-16T23:30:44.832Z,100205.35
2024-03-16T23:33:13.012Z,100204.84
2024-03-16T23:35:40.194Z,100207.94
2024-03-16T23:38:07.420Z,100208.77
2024-03-16T23:40:34.705Z,100207.02
2024-03-16T23:43:02.022Z,100206.69
2024-03-16T23:45:29.277Z,100209.77
2024-03-16T23:47:56.467Z,100210.61
2024-03-16T23:50:23.741Z,100213.02
2024-03-16T23:52:50.906Z,100215.24
2024-03-16T23:55:18.783Z,100216.77
2024-03-16T23:57:45.918Z,100217.63
